Time;durP1;ratioP1;P1;durP2;ratioP2;P2;SDS_P1;SDS_P2;PMS_P1;PMS_P2;Temp;Humidity;BMP_temperature;BMP_pressure;BME280_temperature;BME280_humidity;BME280_pressure;Samples;Min_cycle;Max_cycle;Signal;HPM_P1;HPM_P2
2021/08/27 00:01:06;;;;;;;22.97;21.50;;;14.40;84.80;;;;;;5048206;28;20453;-71
2021/08/27 00:03:33;;;;;;;22.50;21.10;;;14.40;84.90;;;;;;5048905;28;20493;-71
2021/08/27 00:06:00;;;;;;;23.10;21.67;;;14.40;84.90;;;;;;5041962;28;20487;-71
2021/08/27 00:08:26;;;;;;;22.97;21.50;;;14.40;84.80;;;;;;5045651;28;20574;-71
2021/08/27 00:10:53;;;;;;;23.03;21.53;;;14.50;84.70;;;;;;5035284;28;20542;-71
2021/08/27 00:13:22;;;;;;;23.30;21.90;;;14.50;84.90;;;;;;5049384;28;20454;-71
2021/08/27 00:15:48;;;;;;;22.60;21.20;;;14.50;84.80;;;;;;5049860;28;20550;-71
2021/08/27 00:18:15;;;;;;;22.30;20.80;;;14.60;84.80;;;;;;5041075;28;20475;-71
2021/08/27 00:20:42;;;;;;;23.10;21.37;;;14.70;84.10;;;;;;5048222;28;20790;-71
2021/08/27 00:23:09;;;;;;;22.97;21.57;;;14.70;83.90;;;;;;5048061;28;20554;-71
2021/08/27 00:25:36;;;;;;;22.80;21.30;;;14.70;84.10;;;;;;5047722;28;20461;-71
2021/08/27 00:28:05;;;;;;;22.23;20.93;;;14.80;83.50;;;;;;5034954;28;21005;-71
2021/08/27 00:30:33;;;;;;;23.70;22.13;;;14.80;83.70;;;;;;5047528;28;20450;-70
2021/08/27 00:33:00;;;;;;;22.97;21.57;;;14.80;83.60;;;;;;5044199;28;20458;-71
2021/08/27 00:35:27;;;;;;;22.60;21.30;;;14.80;83.90;;;;;;5045238;28;20505;-70
2021/08/27 00:37:54;;;;;;;23.00;21.60;;;14.80;84.20;;;;;;5050285;28;20554;-71
2021/08/27 00:40:21;;;;;;;23.90;22.33;;;14.80;84.20;;;;;;5048070;28;20470;-71
2021/08/27 00:42:48;;;;;;;23.37;21.87;;;14.80;84.00;;;;;;5050894;28;20533;-71
2021/08/27 00:45:15;;;;;;;22.80;21.40;;;14.80;83.80;;;;;;5044717;28;21012;-71
2021/08/27 00:47:44;;;;;;;23.10;21.70;;;14.90;83.80;;;;;;5041655;28;20578;-71
2021/08/27 00:50:11;;;;;;;23.73;22.07;;;14.90;83.70;;;;;;5041344;28;21088;-71
2021/08/27 00:52:39;;;;;;;23.23;21.83;;;14.80;83.90;;;;;;5050959;28;20502;-71
2021/08/27 00:55:06;;;;;;;23.10;21.80;;;14.80;84.00;;;;;;5039316;28;20459;-71
2021/08/27 00:57:33;;;;;;;22.90;21.50;;;14.80;84.10;;;;;;5049554;28;20943;-71
2021/08/27 01:00:00;;;;;;;22.90;21.50;;;14.90;83.70;;;;;;5047078;28;20452;-71
2021/08/27 01:02:28;;;;;;;23.13;21.63;;;14.90;84.40;;;;;;5037433;28;20467;-71
2021/08/27 01:04:57;;;;;;;22.80;21.47;;;14.90;84.20;;;;;;5044483;28;20475;-71
2021/08/27 01:07:28;;;;;;;24.90;22.97;;;15.00;84.10;;;;;;5037622;28;20483;-71
2021/08/27 01:10:03;;;;;;;23.13;21.83;;;15.00;84.20;;;;;;5045516;28;20757;-71
2021/08/27 01:12:35;;;;;;;22.90;21.40;;;15.00;83.90;;;;;;5047779;28;20462;-71
2021/08/27 01:15:05;;;;;;;23.20;21.50;;;15.00;84.20;;;;;;5041532;28;20448;-71
2021/08/27 01:17:36;;;;;;;22.80;21.40;;;15.10;84.30;;;;;;5038778;28;20466;-71
2021/08/27 01:20:48;;;;;;;23.00;21.60;;;15.10;84.10;;;;;;5044978;28;20469;-71
2021/08/27 01:23:22;;;;;;;22.53;21.23;;;15.10;84.20;;;;;;4987012;28;21023;-71
2021/08/27 01:25:53;;;;;;;23.17;21.67;;;15.00;84.40;;;;;;4986870;28;20465;-70
2021/08/27 01:28:22;;;;;;;22.83;21.30;;;15.00;84.40;;;;;;5006801;28;20563;-72
2021/08/27 01:31:00;;;;;;;22.87;21.43;;;15.10;84.30;;;;;;5044314;28;20797;-71
2021/08/27 01:33:30;;;;;;;22.30;20.90;;;15.10;84.30;;;;;;5045204;28;20558;-70
2021/08/27 01:36:02;;;;;;;23.10;21.70;;;15.10;84.40;;;;;;5044823;28;20953;-70
2021/08/27 01:38:33;;;;;;;22.27;21.07;;;15.10;84.20;;;;;;5035486;28;20482;-71
2021/08/27 01:41:00;;;;;;;23.90;22.37;;;15.10;84.00;;;;;;5047642;28;20465;-71
2021/08/27 01:43:29;;;;;;;22.53;21.23;;;15.10;84.10;;;;;;5035447;28;20838;-71
2021/08/27 01:46:01;;;;;;;23.00;21.50;;;15.10;85.30;;;;;;5043520;28;20473;-71
2021/08/27 01:48:31;;;;;;;23.17;21.77;;;15.10;84.90;;;;;;5041250;28;20567;-71
2021/08/27 01:50:59;;;;;;;23.23;21.60;;;15.10;84.60;;;;;;5041283;28;20463;-71
2021/08/27 01:53:28;;;;;;;24.10;22.20;;;15.10;84.50;;;;;;5048334;28;20534;-71
2021/08/27 01:55:58;;;;;;;22.20;21.00;;;15.10;84.60;;;;;;5045801;28;20465;-70
2021/08/27 01:58:26;;;;;;;23.23;21.80;;;15.10;84.50;;;;;;5045455;28;20486;-69
2021/08/27 02:00:55;;;;;;;23.93;22.33;;;15.20;84.30;;;;;;5047186;28;20463;-69
2021/08/27 02:03:22;;;;;;;22.40;21.20;;;15.10;84.50;;;;;;5045529;28;20500;-69
2021/08/27 02:05:51;;;;;;;22.97;21.67;;;15.20;84.20;;;;;;5045353;28;20454;-69
2021/08/27 02:08:21;;;;;;;22.37;21.07;;;15.20;84.40;;;;;;5043242;28;20480;-70
2021/08/27 02:10:49;;;;;;;23.70;22.30;;;15.20;84.50;;;;;;5035575;28;20458;-69
2021/08/27 02:13:18;;;;;;;23.20;21.90;;;15.20;84.50;;;;;;5032199;28;20544;-69
2021/08/27 02:15:46;;;;;;;22.90;21.30;;;15.20;84.50;;;;;;5047626;28;20824;-69
2021/08/27 02:18:13;;;;;;;23.33;22.03;;;15.30;84.40;;;;;;5030023;28;20512;-70
2021/08/27 02:20:40;;;;;;;23.23;21.90;;;15.30;84.10;;;;;;5038967;28;20454;-69
2021/08/27 02:23:08;;;;;;;23.13;21.83;;;15.30;84.10;;;;;;5031718;28;20962;-70
2021/08/27 02:25:39;;;;;;;26.50;24.43;;;15.30;84.10;;;;;;5045744;28;20477;-70
2021/08/27 02:28:06;;;;;;;23.43;21.93;;;15.40;83.90;;;;;;5047530;28;20483;-70
2021/08/27 02:30:34;;;;;;;23.97;22.23;;;15.40;83.80;;;;;;5045119;28;20963;-69
2021/08/27 02:33:04;;;;;;;23.40;21.80;;;15.40;83.90;;;;;;5039870;28;20455;-70
2021/08/27 02:35:32;;;;;;;23.67;22.17;;;15.40;83.90;;;;;;5037374;28;21208;-70
2021/08/27 02:38:00;;;;;;;23.80;22.40;;;15.40;83.70;;;;;;5031874;28;20488;-70
2021/08/27 02:40:27;;;;;;;23.27;21.63;;;15.30;84.10;;;;;;5041235;28;20447;-70
2021/08/27 02:42:55;;;;;;;22.90;21.50;;;15.30;84.30;;;;;;5038018;28;20459;-69
2021/08/27 02:45:22;;;;;;;22.43;21.03;;;15.30;84.30;;;;;;5042701;28;20522;-70
2021/08/27 02:47:49;;;;;;;22.57;21.10;;;15.40;84.30;;;;;;5031273;28;20480;-70
2021/08/27 02:50:16;;;;;;;24.73;23.00;;;15.50;83.90;;;;;;5041300;28;20458;-69
2021/08/27 02:52:49;;;;;;;24.60;22.80;;;15.30;84.30;;;;;;5029697;28;20459;-70
2021/08/27 02:55:19;;;;;;;23.20;21.70;;;15.40;84.40;;;;;;5043200;28;20497;-69
2021/08/27 02:57:51;;;;;;;23.40;21.90;;;15.40;84.20;;;;;;5038026;28;21229;-70
2021/08/27 03:00:21;;;;;;;23.20;21.67;;;15.40;84.10;;;;;;5043989;28;20543;-69
2021/08/27 03:02:49;;;;;;;24.27;22.70;;;15.30;84.60;;;;;;5047470;28;21051;-69
2021/08/27 03:05:21;;;;;;;23.40;21.90;;;15.30;84.70;;;;;;5045056;28;21064;-69
2021/08/27 03:07:57;;;;;;;24.67;22.97;;;15.30;84.70;;;;;;5043704;28;20466;-69
2021/08/27 03:10:28;;;;;;;25.73;23.80;;;15.40;84.40;;;;;;5041010;28;20456;-69
2021/08/27 03:13:00;;;;;;;25.87;24.10;;;15.40;84.30;;;;;;5029896;28;20460;-69
2021/08/27 03:15:32;;;;;;;25.20;23.23;;;15.40;84.70;;;;;;5031450;28;20888;-69
2021/08/27 03:18:04;;;;;;;26.50;24.83;;;15.30;84.90;;;;;;5039084;28;20475;-69
2021/08/27 03:20:42;;;;;;;24.60;23.10;;;15.30;85.20;;;;;;5044497;28;20451;-70
2021/08/27 03:23:11;;;;;;;25.67;23.87;;;15.20;85.40;;;;;;5037576;28;20541;-71
2021/08/27 03:25:41;;;;;;;24.50;22.90;;;15.30;85.50;;;;;;5046491;28;20502;-71
2021/08/27 03:28:13;;;;;;;24.90;23.37;;;15.20;85.50;;;;;;5043549;28;20471;-71
2021/08/27 03:30:43;;;;;;;26.20;24.60;;;15.30;85.40;;;;;;5045751;28;20463;-71
2021/08/27 03:33:12;;;;;;;25.90;24.20;;;15.20;85.80;;;;;;5036825;28;20983;-71
2021/08/27 03:35:39;;;;;;;26.30;24.60;;;15.10;86.20;;;;;;5045158;28;20451;-70
2021/08/27 03:38:09;;;;;;;28.63;26.60;;;15.00;86.80;;;;;;5046727;28;20479;-71
2021/08/27 03:40:37;;;;;;;28.83;26.80;;;14.90;87.40;;;;;;5045724;28;20532;-71
2021/08/27 03:43:04;;;;;;;29.23;27.03;;;14.80;87.70;;;;;;5037773;28;20447;-71
2021/08/27 03:45:31;;;;;;;27.47;25.50;;;14.80;87.90;;;;;;5045244;28;21002;-71
2021/08/27 03:48:01;;;;;;;27.40;25.60;;;14.80;88.10;;;;;;5048532;28;20562;-71
2021/08/27 03:50:29;;;;;;;26.53;24.63;;;14.70;88.20;;;;;;5049194;28;20455;-71
2021/08/27 03:52:56;;;;;;;27.17;25.47;;;14.90;88.20;;;;;;5050587;28;20469;-71
2021/08/27 03:55:24;;;;;;;28.40;26.60;;;15.00;87.60;;;;;;5049924;28;20461;-71
2021/08/27 03:57:53;;;;;;;26.20;24.40;;;15.00;87.30;;;;;;5044473;28;20566;-71
2021/08/27 04:00:23;;;;;;;27.77;25.50;;;15.00;87.20;;;;;;5048109;28;20461;-71
2021/08/27 04:02:51;;;;;;;28.37;26.07;;;15.10;87.20;;;;;;5050611;28;20886;-71
2021/08/27 04:05:22;;;;;;;28.10;26.03;;;14.90;87.60;;;;;;5046561;28;20478;-71
2021/08/27 04:07:50;;;;;;;27.57;25.77;;;14.80;88.30;;;;;;5040968;28;20471;-71
2021/08/27 04:10:19;;;;;;;27.60;25.70;;;14.80;88.30;;;;;;5045815;28;20455;-71
2021/08/27 04:12:47;;;;;;;27.33;25.47;;;14.80;88.20;;;;;;5037763;28;20546;-71
2021/08/27 04:15:16;;;;;;;28.13;26.17;;;14.80;87.70;;;;;;5043186;28;20455;-71
2021/08/27 04:17:44;;;;;;;28.83;26.80;;;14.90;87.70;;;;;;5044738;28;20479;-71
2021/08/27 04:20:13;;;;;;;27.10;25.10;;;14.90;87.40;;;;;;5043090;28;20451;-71
2021/08/27 04:22:42;;;;;;;27.07;25.13;;;14.90;87.40;;;;;;5040928;28;20463;-71
2021/08/27 04:25:09;;;;;;;29.37;27.30;;;14.90;87.30;;;;;;5049122;28;20559;-71
2021/08/27 04:27:36;;;;;;;27.23;25.17;;;14.90;87.10;;;;;;5042747;28;20477;-71
2021/08/27 04:30:04;;;;;;;25.60;24.10;;;14.90;87.10;;;;;;5046246;28;20900;-72
2021/08/27 04:32:31;;;;;;;27.10;25.20;;;15.00;86.80;;;;;;5047608;28;20485;-69
2021/08/27 04:34:58;;;;;;;26.50;24.70;;;14.90;86.60;;;;;;5045344;28;20465;-69
2021/08/27 04:37:25;;;;;;;26.93;25.23;;;14.90;86.50;;;;;;5045328;28;20483;-69
2021/08/27 04:39:53;;;;;;;26.97;25.20;;;14.90;86.50;;;;;;5049342;28;20469;-69
2021/08/27 04:42:20;;;;;;;26.97;25.00;;;14.80;86.60;;;;;;5048640;28;20490;-69
2021/08/27 04:44:47;;;;;;;27.97;26.30;;;14.70;86.70;;;;;;5041723;28;20482;-70
2021/08/27 04:47:14;;;;;;;28.43;26.30;;;14.80;86.70;;;;;;5039841;28;20455;-70
2021/08/27 04:49:40;;;;;;;25.70;23.90;;;14.80;86.90;;;;;;5043573;28;20468;-72
2021/08/27 04:52:08;;;;;;;26.50;24.80;;;15.00;86.60;;;;;;5036642;28;20458;-72
2021/08/27 04:54:34;;;;;;;26.77;25.00;;;14.90;86.60;;;;;;5047386;28;20542;-71
2021/08/27 04:57:03;;;;;;;27.40;25.60;;;14.90;86.70;;;;;;5049103;28;20546;-70
2021/08/27 04:59:30;;;;;;;28.37;26.47;;;15.00;86.50;;;;;;5038754;28;20508;-72
2021/08/27 05:01:59;;;;;;;28.17;26.42;;;15.00;86.50;;;;;;5045240;28;20465;-72
2021/08/27 05:04:26;;;;;;;27.50;25.60;;;14.80;87.00;;;;;;5044442;28;20612;-72
2021/08/27 05:06:53;;;;;;;27.20;25.33;;;14.80;87.40;;;;;;5031415;28;20460;-71
2021/08/27 05:09:20;;;;;;;27.27;25.17;;;14.80;87.20;;;;;;5046143;28;20573;-71
2021/08/27 05:11:47;;;;;;;28.97;26.70;;;14.90;87.30;;;;;;5048552;28;20494;-73
2021/08/27 05:14:16;;;;;;;33.20;30.83;;;14.90;87.10;;;;;;5044413;28;20461;-72
2021/08/27 05:16:43;;;;;;;31.10;29.00;;;14.70;87.70;;;;;;5042283;28;20456;-72
2021/08/27 05:19:10;;;;;;;31.13;28.80;;;14.70;88.10;;;;;;5041417;28;20566;-73
2021/08/27 05:21:37;;;;;;;32.70;30.20;;;14.60;88.20;;;;;;5048352;28;20462;-73
2021/08/27 05:24:04;;;;;;;32.20;29.90;;;14.60;88.50;;;;;;5042757;28;20559;-73
2021/08/27 05:26:32;;;;;;;34.47;31.83;;;14.70;88.20;;;;;;5040525;28;20479;-73
2021/08/27 05:28:59;;;;;;;36.00;33.20;;;14.70;88.00;;;;;;5046455;28;20479;-72
2021/08/27 05:31:28;;;;;;;34.13;31.73;;;14.70;88.20;;;;;;5044919;28;20472;-72
2021/08/27 05:33:54;;;;;;;35.10;32.50;;;14.70;88.40;;;;;;5038294;28;20460;-73
2021/08/27 05:36:22;;;;;;;34.40;31.87;;;14.90;87.50;;;;;;5044971;28;22557;-71
2021/08/27 05:38:49;;;;;;;34.47;32.13;;;14.80;87.60;;;;;;5041091;28;20481;-71
2021/08/27 05:41:16;;;;;;;35.40;32.90;;;14.90;87.60;;;;;;5044475;28;20967;-71
2021/08/27 05:43:43;;;;;;;36.00;33.37;;;15.00;87.50;;;;;;5045270;28;20459;-70
2021/08/27 05:46:11;;;;;;;33.30;30.90;;;15.10;86.70;;;;;;5039547;28;20479;-70
2021/08/27 05:48:39;;;;;;;48.93;45.47;;;15.00;87.20;;;;;;5044935;28;20475;-70
2021/08/27 05:51:06;;;;;;;36.00;33.17;;;15.10;88.30;;;;;;5049909;28;20465;-70
2021/08/27 05:53:33;;;;;;;35.27;32.87;;;15.10;88.70;;;;;;5043721;28;20553;-70
2021/08/27 05:56:04;;;;;;;30.50;28.60;;;15.10;86.60;;;;;;5041545;28;20459;-70
2021/08/27 05:58:31;;;;;;;29.40;27.20;;;15.10;86.50;;;;;;5039218;28;20544;-71
2021/08/27 06:00:58;;;;;;;31.77;29.67;;;15.00;86.30;;;;;;5040656;28;20459;-69
2021/08/27 06:03:25;;;;;;;33.93;31.33;;;14.90;87.00;;;;;;5041357;28;20228;-69
2021/08/27 06:05:53;;;;;;;31.10;28.87;;;14.90;87.40;;;;;;5046336;28;20489;-69
2021/08/27 06:08:20;;;;;;;30.00;28.10;;;14.80;87.20;;;;;;5035338;28;20479;-69
2021/08/27 06:10:47;;;;;;;30.60;28.40;;;14.80;87.60;;;;;;5038805;28;20461;-70
2021/08/27 06:13:14;;;;;;;30.23;28.27;;;14.90;87.50;;;;;;5036581;28;20979;-69
2021/08/27 06:15:43;;;;;;;30.33;28.33;;;14.80;87.00;;;;;;5033104;28;20497;-70
2021/08/27 06:18:10;;;;;;;26.57;24.87;;;14.80;87.50;;;;;;5039947;28;20585;-69
2021/08/27 06:20:37;;;;;;;28.67;26.47;;;14.80;87.60;;;;;;5042592;28;20821;-69
2021/08/27 06:23:05;;;;;;;27.53;26.03;;;14.90;86.30;;;;;;5041818;28;20546;-69
2021/08/27 06:25:32;;;;;;;29.17;27.23;;;14.90;86.60;;;;;;5041748;28;20514;-70
2021/08/27 06:27:59;;;;;;;26.73;25.00;;;14.90;85.90;;;;;;5041547;28;20518;-69
2021/08/27 06:30:26;;;;;;;27.80;25.97;;;14.70;86.50;;;;;;5039323;28;20459;-69
2021/08/27 06:32:53;;;;;;;28.27;26.40;;;14.70;86.80;;;;;;5041160;28;20463;-72
2021/08/27 06:35:20;;;;;;;26.53;24.93;;;14.70;86.80;;;;;;5045465;28;20771;-70
2021/08/27 06:40:33;;;;;;;28.13;26.00;;;14.90;86.30;;;;;;5045378;28;20434;-69
2021/08/27 06:43:06;;;;;;;28.93;27.23;;;15.00;85.90;;;;;;5042710;28;20998;-70
2021/08/27 06:45:33;;;;;;;27.27;25.47;;;15.20;84.30;;;;;;5041170;28;20981;-69
2021/08/27 06:48:00;;;;;;;27.20;25.20;;;15.20;84.30;;;;;;5029939;28;20484;-69
2021/08/27 06:50:27;;;;;;;28.10;26.00;;;15.40;83.90;;;;;;5041813;28;21001;-70
2021/08/27 06:52:55;;;;;;;28.17;26.40;;;15.50;83.40;;;;;;5035996;28;20802;-70
2021/08/27 06:55:22;;;;;;;26.73;24.70;;;15.60;82.90;;;;;;5043048;28;20456;-70
2021/08/27 06:57:50;;;;;;;26.83;25.23;;;15.70;82.50;;;;;;5038712;28;20485;-70
2021/08/27 07:00:17;;;;;;;28.70;26.77;;;16.00;82.20;;;;;;5045750;28;20546;-69
2021/08/27 07:02:44;;;;;;;29.23;27.40;;;16.00;80.70;;;;;;5047581;28;20462;-70
2021/08/27 07:05:11;;;;;;;27.57;25.83;;;16.10;80.50;;;;;;5032633;28;20622;-69
2021/08/27 07:07:38;;;;;;;27.80;26.20;;;16.00;80.80;;;;;;5045032;28;20478;-69
2021/08/27 07:10:07;;;;;;;26.60;25.00;;;16.10;80.70;;;;;;5047384;28;20458;-70
2021/08/27 07:12:34;;;;;;;26.33;24.83;;;16.20;80.40;;;;;;5048365;28;20467;-70
2021/08/27 07:15:02;;;;;;;27.40;25.80;;;16.30;79.00;;;;;;5046608;28;20461;-69
2021/08/27 07:17:30;;;;;;;26.63;25.07;;;16.40;79.30;;;;;;5044413;28;20453;-69
2021/08/27 07:19:56;;;;;;;27.07;25.27;;;16.50;78.50;;;;;;5046199;28;20454;-70
2021/08/27 07:22:23;;;;;;;26.53;24.83;;;16.50;78.60;;;;;;5046912;28;20841;-70
2021/08/27 07:24:50;;;;;;;30.07;28.20;;;16.50;78.80;;;;;;5047399;28;20666;-70
2021/08/27 07:27:17;;;;;;;27.33;25.70;;;16.40;78.50;;;;;;5043828;28;20461;-70
2021/08/27 07:29:44;;;;;;;30.07;28.17;;;16.30;79.00;;;;;;5045166;28;20456;-70
2021/08/27 07:32:12;;;;;;;28.10;26.37;;;16.40;78.90;;;;;;5045011;28;20503;-69
2021/08/27 07:34:40;;;;;;;28.57;26.77;;;16.40;78.30;;;;;;5040788;28;20455;-70
2021/08/27 07:37:07;;;;;;;29.17;27.13;;;16.40;77.10;;;;;;5049760;28;20538;-69
2021/08/27 07:39:35;;;;;;;27.93;26.50;;;16.20;77.50;;;;;;5049473;28;20478;-70
2021/08/27 07:42:01;;;;;;;26.50;25.10;;;16.20;78.00;;;;;;5041460;28;20455;-69
2021/08/27 07:44:28;;;;;;;25.63;24.13;;;15.90;77.60;;;;;;5050082;28;20484;-70
2021/08/27 07:46:55;;;;;;;28.00;26.23;;;15.70;77.60;;;;;;5037037;28;21216;-69
2021/08/27 07:49:23;;;;;;;27.57;25.87;;;15.70;78.00;;;;;;5049807;28;20474;-69
2021/08/27 07:51:53;;;;;;;25.33;23.93;;;15.90;77.40;;;;;;5050770;28;20865;-70
2021/08/27 07:54:20;;;;;;;27.03;25.20;;;15.90;74.80;;;;;;5050571;28;20451;-70
2021/08/27 07:56:47;;;;;;;28.73;26.93;;;16.00;75.10;;;;;;5049447;28;20529;-69
2021/08/27 07:59:14;;;;;;;27.77;25.97;;;16.30;74.60;;;;;;5039390;28;20478;-71
2021/08/27 08:01:41;;;;;;;27.57;26.00;;;16.50;72.90;;;;;;5045289;28;20822;-71
2021/08/27 08:04:08;;;;;;;27.93;26.17;;;16.40;72.20;;;;;;5038016;28;20485;-71
2021/08/27 08:06:38;;;;;;;25.50;24.00;;;16.20;74.70;;;;;;5052091;28;20482;-71
2021/08/27 08:09:05;;;;;;;25.80;24.23;;;16.20;73.60;;;;;;5043302;28;20518;-71
2021/08/27 08:11:32;;;;;;;26.20;24.30;;;16.20;74.00;;;;;;5049517;28;20465;-71
2021/08/27 08:14:00;;;;;;;26.07;24.37;;;16.30;73.30;;;;;;5050301;28;20461;-71
2021/08/27 08:16:27;;;;;;;25.20;23.80;;;16.60;72.40;;;;;;5051877;28;20487;-71
2021/08/27 08:18:53;;;;;;;26.27;24.47;;;16.80;72.40;;;;;;5045617;28;20501;-71
2021/08/27 08:21:23;;;;;;;24.93;23.63;;;16.90;71.00;;;;;;5040344;28;20456;-71
2021/08/27 08:23:51;;;;;;;28.07;26.37;;;17.00;70.00;;;;;;5034921;28;20505;-71
2021/08/27 08:26:19;;;;;;;25.43;24.03;;;17.10;70.30;;;;;;5050568;28;20479;-71
2021/08/27 08:28:47;;;;;;;28.90;27.30;;;17.20;69.80;;;;;;5041174;28;20806;-71
2021/08/27 08:31:17;;;;;;;27.03;25.43;;;17.10;70.00;;;;;;5042309;28;20460;-71
2021/08/27 08:33:44;;;;;;;25.87;24.57;;;17.20;69.70;;;;;;5050519;28;20481;-71
2021/08/27 08:36:11;;;;;;;25.83;24.47;;;17.10;70.70;;;;;;5051913;28;20455;-71
2021/08/27 08:38:38;;;;;;;26.70;25.07;;;16.90;70.10;;;;;;5046817;28;20490;-71
2021/08/27 08:41:06;;;;;;;27.90;26.50;;;16.90;70.70;;;;;;5040969;28;20490;-71
2021/08/27 08:43:33;;;;;;;28.67;26.97;;;17.20;69.80;;;;;;5045471;28;21189;-71
2021/08/27 08:46:00;;;;;;;25.90;24.50;;;17.20;69.10;;;;;;5040631;28;21169;-72
2021/08/27 08:48:29;;;;;;;26.30;24.90;;;17.20;69.20;;;;;;5047086;28;20502;-73
2021/08/27 08:50:57;;;;;;;25.80;24.30;;;17.20;69.30;;;;;;5049323;28;20471;-71
2021/08/27 08:53:26;;;;;;;27.10;25.70;;;17.20;69.50;;;;;;5046684;28;20961;-74
2021/08/27 08:55:53;;;;;;;26.07;24.50;;;17.30;68.80;;;;;;5039376;28;20439;-70
2021/08/27 08:58:21;;;;;;;26.03;24.73;;;17.30;68.80;;;;;;5048358;28;20477;-72
2021/08/27 09:00:48;;;;;;;27.17;25.70;;;17.10;67.80;;;;;;5043226;28;20554;-73
2021/08/27 09:03:15;;;;;;;27.60;26.10;;;16.80;68.00;;;;;;5049135;28;20542;-72
2021/08/27 09:05:42;;;;;;;25.63;24.13;;;16.80;66.30;;;;;;5043519;28;20475;-72
2021/08/27 09:08:09;;;;;;;27.30;25.37;;;16.90;67.30;;;;;;5045765;28;20481;-76
2021/08/27 09:10:43;;;;;;;27.33;25.93;;;16.90;69.10;;;;;;5039789;28;20470;-72
2021/08/27 09:13:11;;;;;;;24.93;23.53;;;17.10;69.70;;;;;;5046778;28;20578;-72
2021/08/27 09:15:39;;;;;;;27.80;26.30;;;17.10;69.90;;;;;;5047620;28;20451;-71
2021/08/27 09:18:09;;;;;;;25.70;24.30;;;16.90;70.70;;;;;;5035734;28;20563;-70
2021/08/27 09:20:36;;;;;;;26.80;25.37;;;16.80;70.90;;;;;;5042271;28;20905;-70
2021/08/27 09:23:05;;;;;;;27.97;26.17;;;16.80;69.70;;;;;;5041810;28;20482;-70
2021/08/27 09:25:34;;;;;;;26.90;25.40;;;16.70;70.30;;;;;;5033779;28;20809;-71
2021/08/27 09:28:12;;;;;;;27.70;26.13;;;16.80;69.40;;;;;;5040544;28;20566;-71
2021/08/27 09:30:53;;;;;;;27.90;26.40;;;17.00;69.00;;;;;;5046373;28;20458;-71
2021/08/27 09:33:22;;;;;;;27.87;26.27;;;17.30;68.70;;;;;;5045201;28;20617;-71
2021/08/27 09:36:00;;;;;;;27.43;25.80;;;17.70;66.20;;;;;;5046148;28;20548;-71
2021/08/27 09:38:37;;;;;;;25.63;24.03;;;17.60;66.30;;;;;;5046069;28;20482;-71
2021/08/27 09:41:06;;;;;;;26.77;25.20;;;17.40;65.70;;;;;;5031199;28;20447;-69
2021/08/27 09:43:44;;;;;;;25.77;24.23;;;17.30;63.90;;;;;;5037718;28;23172;-69
2021/08/27 09:46:32;;;;;;;25.13;23.70;;;17.10;65.90;;;;;;5047384;28;20486;-69
2021/08/27 09:48:59;;;;;;;26.73;25.10;;;17.20;66.70;;;;;;5044225;28;20492;-69
2021/08/27 09:51:40;;;;;;;24.73;23.33;;;17.20;67.70;;;;;;5039495;28;20545;-69
2021/08/27 09:54:09;;;;;;;25.47;24.03;;;17.50;67.50;;;;;;5035704;28;20566;-69
2021/08/27 09:56:46;;;;;;;25.97;24.30;;;17.50;68.00;;;;;;5043944;28;20482;-69
2021/08/27 09:59:14;;;;;;;27.10;25.17;;;17.60;67.10;;;;;;5037054;28;20486;-71
2021/08/27 10:01:50;;;;;;;27.27;25.50;;;17.60;67.10;;;;;;5043602;28;20472;-69
2021/08/27 10:04:18;;;;;;;27.57;26.07;;;17.60;67.10;;;;;;5042074;28;20450;-69
2021/08/27 10:06:45;;;;;;;28.47;26.83;;;17.60;66.10;;;;;;5034190;28;20574;-69
2021/08/27 10:09:12;;;;;;;28.33;26.30;;;17.50;65.90;;;;;;5041115;28;20582;-69
2021/08/27 10:11:39;;;;;;;26.33;24.83;;;17.50;66.60;;;;;;5036643;28;20547;-70
2021/08/27 10:14:07;;;;;;;26.73;25.23;;;17.90;65.80;;;;;;5035837;28;20960;-69
2021/08/27 10:16:34;;;;;;;26.77;25.27;;;18.00;64.80;;;;;;5041842;28;20463;-69
2021/08/27 10:19:02;;;;;;;27.57;25.93;;;18.00;64.70;;;;;;5042445;28;20487;-69
2021/08/27 10:21:31;;;;;;;28.73;26.90;;;18.10;65.60;;;;;;5041907;28;20545;-69
2021/08/27 10:23:58;;;;;;;28.37;26.60;;;18.30;65.50;;;;;;5044296;28;20512;-69
2021/08/27 10:26:27;;;;;;;26.80;25.30;;;18.60;65.00;;;;;;5030840;28;20570;-70
2021/08/27 10:28:55;;;;;;;27.10;25.57;;;18.90;63.20;;;;;;5002501;28;20481;-70
2021/08/27 10:31:40;;;;;;;26.83;25.33;;;19.00;61.40;;;;;;4995701;28;20464;-69
2021/08/27 10:34:09;;;;;;;26.13;24.70;;;18.90;60.00;;;;;;4989897;28;20460;-69
2021/08/27 10:36:44;;;;;;;26.40;24.90;;;18.70;60.80;;;;;;4994830;28;20547;-69
2021/08/27 10:39:12;;;;;;;27.57;25.83;;;18.50;61.00;;;;;;4992452;28;20571;-69
2021/08/27 10:41:40;;;;;;;27.50;25.80;;;18.50;61.90;;;;;;4995622;28;20460;-69
2021/08/27 10:44:09;;;;;;;27.13;25.63;;;18.40;62.70;;;;;;4996257;28;20850;-70
2021/08/27 10:47:05;;;;;;;28.40;26.73;;;18.20;64.50;;;;;;4994643;28;20469;-69
2021/08/27 10:49:55;;;;;;;26.43;24.90;;;18.20;65.10;;;;;;4998097;28;20636;-69
2021/08/27 10:52:32;;;;;;;27.70;25.80;;;18.20;64.70;;;;;;5004704;28;20487;-71
2021/08/27 10:55:17;;;;;;;27.33;25.73;;;18.10;64.40;;;;;;4993944;28;20467;-71
2021/08/27 10:57:57;;;;;;;29.63;27.73;;;18.30;64.20;;;;;;5000727;28;20485;-71
2021/08/27 11:00:32;;;;;;;27.50;26.00;;;18.40;64.30;;;;;;4999833;28;20857;-71
2021/08/27 11:02:59;;;;;;;27.23;25.73;;;18.30;62.00;;;;;;5004489;28;20470;-73
2021/08/27 11:05:39;;;;;;;28.30;26.70;;;18.30;62.20;;;;;;5001973;28;20950;-72
2021/08/27 11:08:07;;;;;;;28.03;26.20;;;18.40;63.10;;;;;;5000993;28;20866;-71
2021/08/27 11:10:36;;;;;;;27.93;26.10;;;18.80;64.00;;;;;;5000351;28;20903;-71
2021/08/27 11:13:11;;;;;;;28.00;26.40;;;19.00;63.90;;;;;;5002418;28;20495;-73
2021/08/27 11:15:39;;;;;;;26.30;24.80;;;19.10;63.40;;;;;;5001466;28;20464;-69
2021/08/27 11:18:13;;;;;;;28.70;27.23;;;19.20;62.70;;;;;;5005179;28;20477;-69
2021/08/27 11:20:42;;;;;;;27.40;25.70;;;18.70;62.30;;;;;;5001091;28;20558;-73
2021/08/27 11:23:10;;;;;;;27.33;25.77;;;18.10;63.70;;;;;;5009091;28;20548;-68
2021/08/27 11:25:41;;;;;;;28.27;26.77;;;17.80;64.60;;;;;;5004450;28;20449;-69
2021/08/27 11:28:13;;;;;;;30.33;26.90;;;17.80;65.10;;;;;;5005590;28;20834;-71
2021/08/27 11:30:40;;;;;;;26.87;25.17;;;17.90;63.20;;;;;;4999749;28;20560;-70
2021/08/27 11:34:01;;;;;;;28.63;27.13;;;18.10;63.70;;;;;;4996176;28;21252;-70
2021/08/27 11:36:35;;;;;;;28.33;26.13;;;18.10;63.20;;;;;;5011241;28;20502;-71
2021/08/27 11:39:02;;;;;;;26.80;25.40;;;18.20;63.40;;;;;;5004069;28;20572;-71
2021/08/27 11:41:29;;;;;;;26.80;25.40;;;18.20;63.70;;;;;;5009281;28;20538;-71
2021/08/27 11:44:11;;;;;;;27.90;26.30;;;18.30;64.50;;;;;;5014960;28;20479;-71
2021/08/27 11:46:40;;;;;;;26.63;25.20;;;18.50;64.70;;;;;;4998427;28;20481;-71
2021/08/27 11:49:29;;;;;;;26.20;24.70;;;18.80;64.40;;;;;;4998976;28;20485;-71
2021/08/27 11:52:15;;;;;;;27.80;26.10;;;19.10;63.80;;;;;;5004852;28;20826;-73
2021/08/27 11:54:42;;;;;;;26.30;24.80;;;19.60;62.40;;;;;;5008140;28;20463;-72
2021/08/27 11:57:18;;;;;;;25.90;24.30;;;19.60;59.20;;;;;;5007330;28;20508;-71
2021/08/27 11:59:45;;;;;;;27.90;26.30;;;19.10;61.00;;;;;;4993892;28;21030;-72
2021/08/27 12:02:20;;;;;;;26.67;25.17;;;19.30;61.60;;;;;;5004788;28;20464;-72
2021/08/27 12:04:59;;;;;;;25.80;24.20;;;19.60;60.40;;;;;;5011585;28;20459;-71
2021/08/27 12:07:31;;;;;;;26.30;24.80;;;19.50;61.10;;;;;;4999426;28;20492;-72
2021/08/27 12:10:13;;;;;;;26.03;24.20;;;19.20;62.70;;;;;;4997924;28;20520;-71
2021/08/27 12:12:41;;;;;;;25.63;23.93;;;18.90;63.40;;;;;;5011353;28;20535;-72
2021/08/27 12:15:11;;;;;;;25.00;23.40;;;18.90;63.80;;;;;;5000188;28;20458;-70
2021/08/27 12:17:39;;;;;;;25.20;23.90;;;19.00;63.40;;;;;;4995570;28;20506;-72
2021/08/27 12:20:11;;;;;;;27.40;25.73;;;19.20;63.40;;;;;;4996166;28;20557;-72
2021/08/27 12:22:45;;;;;;;24.87;23.37;;;19.30;61.50;;;;;;5003298;28;20460;-72
2021/08/27 12:25:21;;;;;;;26.20;24.50;;;19.30;60.90;;;;;;5001161;28;21049;-73
2021/08/27 12:27:50;;;;;;;26.67;25.00;;;19.10;61.60;;;;;;5007585;28;20492;-72
2021/08/27 12:30:18;;;;;;;26.73;24.60;;;19.20;62.60;;;;;;5001253;28;20895;-72
2021/08/27 12:32:46;;;;;;;27.20;25.30;;;18.90;63.40;;;;;;5006111;28;20465;-72
2021/08/27 12:35:15;;;;;;;28.67;26.93;;;18.80;63.30;;;;;;5001114;28;21093;-72
2021/08/27 12:37:44;;;;;;;27.27;25.40;;;18.80;63.10;;;;;;5004080;28;20468;-72
2021/08/27 12:40:14;;;;;;;27.43;25.47;;;18.60;63.70;;;;;;5008971;28;20491;-73
2021/08/27 12:42:55;;;;;;;26.43;24.93;;;18.80;64.40;;;;;;5000570;28;20460;-73